createdAt,value
2022-08-30T00:00:33.932Z,13.35
2022-08-30T00:03:02.646Z,16.70
2022-08-30T00:05:31.808Z,12.60
2022-08-30T00:08:01.303Z,13.25
2022-08-30T00:10:29.640Z,11.63
2022-08-30T00:12:59.464Z,11.55
2022-08-30T00:15:29.185Z,11.57
2022-08-30T00:17:57.298Z,12.73
2022-08-30T00:20:29.049Z,15.52
2022-08-30T00:22:57.288Z,14.15
2022-08-30T00:25:26.988Z,13.63
2022-08-30T00:27:54.666Z,9.90
2022-08-30T00:30:22.893Z,11.55
2022-08-30T00:32:50.544Z,7.13
2022-08-30T00:35:20.433Z,11.95
2022-08-30T00:37:48.627Z,8.75
2022-08-30T00:40:17.525Z,7.25
2022-08-30T00:42:50.745Z,9.40
2022-08-30T00:45:25.321Z,7.35
2022-08-30T00:47:53.201Z,5.20
2022-08-30T00:50:24.323Z,8.63
2022-08-30T00:52:55.078Z,10.88
2022-08-30T00:55:23.648Z,6.45
2022-08-30T00:57:57.389Z,8.20
2022-08-30T01:00:26.952Z,6.18
2022-08-30T01:02:54.733Z,7.57
2022-08-30T01:05:23.892Z,8.95
2022-08-30T01:07:52.058Z,4.50
2022-08-30T01:10:20.055Z,7.55
2022-08-30T01:12:48.766Z,7.15
2022-08-30T01:15:17.934Z,7.97
2022-08-30T01:17:48.204Z,8.10
2022-08-30T01:20:21.437Z,6.05
2022-08-30T01:23:05.343Z,6.57
2022-08-30T01:25:36.257Z,8.52
2022-08-30T01:28:07.657Z,6.65
2022-08-30T01:30:39.003Z,6.55
2022-08-30T01:33:09.210Z,4.75
2022-08-30T01:35:47.066Z,6.60
2022-08-30T01:38:17.922Z,10.48
2022-08-30T01:40:45.855Z,7.18
2022-08-30T01:43:15.355Z,7.22
2022-08-30T01:45:43.300Z,7.35
2022-08-30T01:48:12.759Z,12.38
2022-08-30T01:50:41.667Z,8.43
2022-08-30T01:53:12.342Z,7.43
2022-08-30T01:55:42.760Z,9.80
2022-08-30T01:58:10.484Z,9.73
2022-08-30T02:00:38.586Z,9.82
2022-08-30T02:03:06.590Z,7.65
2022-08-30T02:05:34.841Z,8.20
2022-08-30T02:08:03.552Z,6.82
2022-08-30T02:10:31.832Z,9.15
2022-08-30T02:13:00.766Z,8.60
2022-08-30T02:15:28.449Z,6.50
2022-08-30T02:17:56.087Z,6.32
2022-08-30T02:20:24.112Z,8.00
2022-08-30T02:22:51.729Z,6.75
2022-08-30T02:25:20.770Z,6.32
2022-08-30T02:27:49.059Z,6.53
2022-08-30T02:30:18.083Z,7.80
2022-08-30T02:32:45.704Z,7.15
2022-08-30T02:35:13.272Z,8.23
2022-08-30T02:37:40.911Z,7.20
2022-08-30T02:40:10.186Z,9.48
2022-08-30T02:42:37.849Z,8.77
2022-08-30T02:45:06.271Z,6.78
2022-08-30T02:47:35.722Z,6.30
2022-08-30T02:50:03.889Z,8.85
2022-08-30T02:52:31.615Z,7.38
2022-08-30T02:54:59.672Z,9.35
2022-08-30T02:57:27.451Z,7.47
2022-08-30T02:59:55.034Z,11.35
2022-08-30T03:02:23.161Z,8.55
2022-08-30T03:04:52.197Z,9.98
2022-08-30T03:07:20.556Z,6.32
2022-08-30T03:09:48.404Z,7.07
2022-08-30T03:12:16.177Z,9.98
2022-08-30T03:14:43.749Z,8.38
2022-08-30T03:17:12.965Z,9.75
2022-08-30T03:19:44.692Z,6.35
2022-08-30T03:22:14.027Z,6.10
2022-08-30T03:24:41.882Z,10.07
2022-08-30T03:27:09.645Z,7.53
2022-08-30T03:29:37.209Z,7.72
2022-08-30T03:32:05.296Z,9.27
2022-08-30T03:34:32.998Z,11.32
2022-08-30T03:37:01.194Z,7.45
2022-08-30T03:39:30.125Z,9.07
2022-08-30T03:41:57.668Z,7.45
2022-08-30T03:44:26.993Z,11.23
2022-08-30T03:46:55.247Z,10.13
2022-08-30T03:49:23.998Z,5.57
2022-08-30T03:51:52.028Z,8.27
2022-08-30T03:54:19.632Z,6.43
2022-08-30T03:56:48.636Z,7.90
2022-08-30T03:59:16.684Z,7.00
2022-08-30T04:01:45.631Z,8.80
2022-08-30T04:04:16.313Z,7.60
2022-08-30T04:06:46.316Z,7.75
2022-08-30T04:09:13.889Z,6.72
2022-08-30T04:11:41.443Z,7.68
2022-08-30T04:14:10.370Z,8.05
2022-08-30T04:16:38.123Z,8.32
2022-08-30T04:19:05.814Z,7.00
2022-08-30T04:21:33.454Z,10.07
2022-08-30T04:24:08.628Z,10.35
2022-08-30T04:26:36.277Z,11.05
2022-08-30T04:29:03.938Z,15.25
2022-08-30T04:31:32.993Z,12.90
2022-08-30T04:34:00.707Z,11.20
2022-08-30T04:36:28.289Z,8.88
2022-08-30T04:38:55.989Z,9.40
2022-08-30T04:41:24.363Z,7.75
2022-08-30T04:43:52.029Z,12.32
2022-08-30T04:46:20.573Z,7.13
2022-08-30T04:48:50.249Z,8.63
2022-08-30T04:51:19.132Z,12.68
2022-08-30T04:53:47.047Z,10.65
2022-08-30T04:56:17.423Z,11.02
2022-08-30T04:58:45.684Z,10.30
2022-08-30T05:01:14.845Z,10.05
2022-08-30T05:03:46.669Z,11.55
2022-08-30T05:06:16.518Z,14.05
2022-08-30T05:08:45.911Z,11.10
2022-08-30T05:11:14.778Z,11.98
2022-08-30T05:13:42.520Z,11.80
2022-08-30T05:16:10.365Z,11.13
2022-08-30T05:18:38.297Z,11.88
2022-08-30T05:21:08.750Z,11.15
2022-08-30T05:23:38.346Z,10.82
2022-08-30T05:26:07.847Z,14.35
2022-08-30T05:28:36.187Z,11.82
2022-08-30T05:31:04.792Z,10.32
2022-08-30T05:33:41.750Z,13.52
2022-08-30T05:36:10.966Z,10.98
2022-08-30T05:38:40.625Z,9.93
2022-08-30T05:41:10.873Z,13.18
2022-08-30T05:43:39.273Z,10.18
2022-08-30T05:46:10.230Z,12.05
2022-08-30T05:48:38.527Z,10.73
2022-08-30T05:51:09.301Z,10.25
2022-08-30T05:53:36.992Z,11.10
2022-08-30T05:56:08.721Z,10.00
2022-08-30T05:58:36.717Z,8.32
2022-08-30T06:01:05.011Z,10.52
2022-08-30T06:03:33.374Z,10.13
2022-08-30T06:06:02.379Z,14.55
2022-08-30T06:08:30.245Z,9.23
2022-08-30T06:10:57.831Z,10.25
2022-08-30T06:13:26.719Z,10.73
2022-08-30T06:15:54.287Z,16.40
2022-08-30T06:18:28.272Z,8.95
2022-08-30T06:20:56.147Z,8.70
2022-08-30T06:23:24.143Z,10.23
2022-08-30T06:25:52.121Z,13.13
2022-08-30T06:28:19.700Z,12.30
2022-08-30T06:30:48.645Z,12.93
2022-08-30T06:33:16.215Z,14.20
2022-08-30T06:35:58.377Z,12.00
2022-08-30T06:38:27.600Z,9.88
2022-08-30T06:40:55.188Z,9.63
2022-08-30T06:43:22.755Z,10.98
2022-08-30T06:45:51.903Z,8.45
2022-08-30T06:48:19.470Z,13.43
2022-08-30T06:50:47.024Z,8.95
2022-08-30T06:53:15.338Z,17.75
2022-08-30T06:55:42.879Z,7.57
2022-08-30T06:58:10.399Z,9.80
2022-08-30T07:00:38.025Z,9.43
2022-08-30T07:03:07.239Z,12.93
2022-08-30T07:05:34.821Z,13.65
2022-08-30T07:08:02.616Z,11.55
2022-08-30T07:10:30.177Z,11.27
2022-08-30T07:12:57.965Z,10.77
2022-08-30T07:15:25.887Z,10.75
2022-08-30T07:18:10.980Z,10.80
2022-08-30T07:20:40.879Z,10.73
2022-08-30T07:23:08.830Z,11.60
2022-08-30T07:25:37.217Z,9.73
2022-08-30T07:28:05.450Z,8.60
2022-08-30T07:30:33.600Z,11.93
2022-08-30T07:33:01.256Z,12.57
2022-08-30T07:35:29.269Z,8.00
2022-08-30T07:37:58.606Z,7.32
2022-08-30T07:40:26.640Z,10.60
2022-08-30T07:42:54.806Z,9.38
2022-08-30T07:45:22.366Z,8.85
2022-08-30T07:47:49.935Z,10.45
2022-08-30T07:50:18.049Z,12.57
2022-08-30T07:52:45.618Z,8.68
2022-08-30T07:55:14.505Z,11.93
2022-08-30T07:57:42.042Z,9.32
2022-08-30T08:00:11.620Z,12.75
2022-08-30T08:02:40.676Z,9.95
2022-08-30T08:05:12.811Z,8.18
2022-08-30T08:07:44.028Z,8.20
2022-08-30T08:10:11.639Z,7.10
2022-08-30T08:12:40.892Z,6.25
2022-08-30T08:15:11.467Z,12.20
2022-08-30T08:17:39.108Z,9.10
2022-08-30T08:20:07.783Z,9.25
2022-08-30T08:22:39.751Z,8.40
2022-08-30T08:25:08.259Z,9.05
2022-08-30T08:27:35.884Z,9.65
2022-08-30T08:30:05.727Z,8.00
2022-08-30T08:32:33.259Z,6.90
2022-08-30T08:35:00.798Z,10.57
2022-08-30T08:37:28.354Z,9.95
2022-08-30T08:39:55.900Z,10.32
2022-08-30T08:42:31.815Z,8.48
2022-08-30T08:45:07.437Z,9.57
2022-08-30T08:47:42.415Z,8.27
2022-08-30T08:50:17.421Z,8.02
2022-08-30T08:53:10.789Z,8.98
2022-08-30T08:55:48.199Z,8.00
2022-08-30T08:58:23.368Z,9.75
2022-08-30T09:00:51.386Z,6.93
2022-08-30T09:03:22.164Z,7.30
2022-08-30T09:05:50.726Z,9.73
2022-08-30T09:08:23.357Z,7.03
2022-08-30T09:10:56.771Z,6.82
2022-08-30T09:13:25.726Z,5.45
2022-08-30T09:15:57.048Z,6.07
2022-08-30T09:18:46.918Z,7.10
2022-08-30T09:21:25.337Z,13.10
2022-08-30T09:23:59.350Z,5.68
2022-08-30T09:26:32.668Z,6.75
2022-08-30T09:29:00.911Z,6.75
2022-08-30T09:31:31.466Z,11.00
2022-08-30T09:34:05.136Z,11.30
2022-08-30T09:36:40.648Z,7.07
2022-08-30T09:39:16.818Z,5.97
2022-08-30T09:41:48.158Z,7.85
2022-08-30T09:44:19.329Z,7.40
2022-08-30T09:46:50.782Z,8.70
2022-08-30T09:49:37.730Z,8.88
2022-08-30T09:52:27.269Z,11.70
2022-08-30T09:55:14.581Z,8.63
2022-08-30T09:57:52.461Z,8.20
2022-08-30T10:00:22.560Z,7.55
2022-08-30T10:03:04.273Z,7.43
2022-08-30T10:05:43.468Z,9.40
2022-08-30T10:08:25.313Z,6.03
2022-08-30T10:10:57.890Z,6.90
2022-08-30T10:14:05.069Z,9.02
2022-08-30T10:16:43.419Z,5.60
2022-08-30T10:19:25.072Z,7.43
2022-08-30T10:22:00.206Z,7.10
2022-08-30T10:24:33.796Z,7.78
2022-08-30T10:27:08.553Z,9.05
2022-08-30T10:32:19.989Z,6.60
2022-08-30T10:34:52.507Z,8.70
2022-08-30T10:37:26.345Z,9.45
2022-08-30T10:39:56.393Z,9.17
2022-08-30T10:42:27.684Z,5.13
2022-08-30T10:45:03.984Z,10.68
2022-08-30T10:47:38.051Z,5.75
2022-08-30T10:50:13.105Z,8.48
2022-08-30T10:52:45.921Z,5.28
2022-08-30T10:55:18.506Z,7.22
2022-08-30T10:57:46.302Z,6.78
2022-08-30T11:00:17.520Z,7.47
2022-08-30T11:03:16.657Z,5.15
2022-08-30T11:06:07.048Z,8.25
2022-08-30T11:08:55.316Z,5.68
2022-08-30T11:11:36.772Z,7.38
2022-08-30T11:14:10.952Z,6.78
2022-08-30T11:16:41.298Z,6.82
2022-08-30T11:19:18.869Z,4.88
2022-08-30T11:21:50.860Z,6.15
2022-08-30T11:24:22.209Z,6.47
2022-08-30T11:26:57.374Z,7.50
2022-08-30T11:29:40.164Z,8.60
2022-08-30T11:32:24.062Z,5.88
2022-08-30T11:35:00.688Z,4.65
2022-08-30T11:37:37.238Z,6.22
2022-08-30T11:40:13.247Z,7.20
2022-08-30T11:42:45.553Z,5.93
2022-08-30T11:45:45.671Z,8.82
2022-08-30T11:48:54.213Z,4.95
2022-08-30T11:52:23.615Z,5.88
2022-08-30T11:54:55.675Z,5.03
2022-08-30T11:57:32.164Z,4.07
2022-08-30T12:00:08.159Z,3.88
2022-08-30T12:02:49.947Z,6.85
2022-08-30T12:05:59.060Z,10.27
2022-08-30T12:08:47.501Z,7.35
2022-08-30T12:12:04.423Z,4.70
2022-08-30T12:14:41.033Z,9.32
2022-08-30T12:17:33.676Z,6.97
2022-08-30T12:20:01.619Z,6.63
2022-08-30T12:22:30.495Z,9.32
2022-08-30T12:24:58.193Z,5.80
2022-08-30T12:27:32.695Z,7.30
2022-08-30T12:30:05.973Z,8.82
2022-08-30T12:32:34.103Z,5.90
2022-08-30T12:35:03.990Z,3.45
2022-08-30T12:37:33.970Z,5.20
2022-08-30T12:40:06.103Z,12.27
2022-08-30T12:42:36.759Z,6.57
2022-08-30T12:45:10.286Z,7.40
2022-08-30T12:47:43.309Z,4.40
2022-08-30T12:50:15.338Z,5.70
2022-08-30T12:52:46.574Z,5.30
2022-08-30T12:55:19.163Z,5.10
2022-08-30T12:58:00.855Z,4.60
2022-08-30T13:00:32.312Z,4.85
2022-08-30T13:03:16.707Z,7.05
2022-08-30T13:05:52.828Z,7.15
2022-08-30T13:08:25.253Z,4.65
2022-08-30T13:11:01.517Z,8.88
2022-08-30T13:13:37.434Z,5.28
2022-08-30T13:16:24.744Z,6.38
2022-08-30T13:18:56.121Z,4.10
2022-08-30T13:21:27.087Z,5.78
2022-08-30T13:23:59.038Z,5.85
2022-08-30T13:26:28.152Z,4.93
2022-08-30T13:28:58.747Z,8.85
2022-08-30T13:31:30.134Z,4.43
2022-08-30T13:33:58.725Z,4.70
2022-08-30T13:36:31.488Z,4.85
2022-08-30T13:39:00.705Z,6.70
2022-08-30T13:41:30.147Z,6.30
2022-08-30T13:44:13.274Z,5.13
2022-08-30T13:46:53.286Z,7.68
2022-08-30T13:52:21.279Z,6.88
2022-08-30T13:54:50.242Z,6.45
2022-08-30T13:57:53.427Z,8.38
2022-08-30T14:00:10.053Z,4.85
2022-08-30T14:02:45.393Z,4.22
2022-08-30T14:05:37.602Z,8.13
2022-08-30T14:08:01.802Z,5.75
2022-08-30T14:10:31.950Z,14.63
2022-08-30T14:13:08.097Z,7.28
2022-08-30T14:15:38.825Z,6.07
2022-08-30T14:18:09.243Z,4.82
2022-08-30T14:20:38.679Z,6.97
2022-08-30T14:23:10.231Z,5.15
2022-08-30T14:25:40.301Z,6.45
2022-08-30T14:28:09.600Z,4.95
2022-08-30T14:30:38.794Z,4.13
2022-08-30T14:33:08.410Z,5.68
2022-08-30T14:35:36.627Z,4.65
2022-08-30T14:38:04.950Z,9.38
2022-08-30T14:40:33.753Z,5.05
2022-08-30T14:43:02.454Z,7.75
2022-08-30T14:45:30.032Z,5.18
2022-08-30T14:47:58.861Z,3.75
2022-08-30T14:50:28.705Z,6.43
2022-08-30T14:52:56.282Z,6.13
2022-08-30T14:55:24.060Z,8.05
2022-08-30T14:57:51.630Z,6.15
2022-08-30T15:00:19.866Z,3.47
2022-08-30T15:02:47.430Z,5.10
2022-08-30T15:05:15.043Z,7.70
2022-08-30T15:07:44.918Z,6.53
2022-08-30T15:10:14.747Z,4.93
2022-08-30T15:12:42.365Z,5.45
2022-08-30T15:15:20.494Z,4.82
2022-08-30T15:17:48.196Z,3.67
2022-08-30T15:20:18.667Z,3.65
2022-08-30T15:22:47.989Z,3.97
2022-08-30T15:25:16.147Z,4.03
2022-08-30T15:27:44.588Z,5.22
2022-08-30T15:30:13.000Z,5.28
2022-08-30T15:32:42.347Z,5.32
2022-08-30T15:35:10.829Z,3.97
2022-08-30T15:37:38.553Z,5.63
2022-08-30T15:40:09.072Z,4.38
2022-08-30T15:42:36.691Z,4.30
2022-08-30T15:45:04.733Z,6.03
2022-08-30T15:47:33.985Z,4.25
2022-08-30T15:50:04.970Z,3.55
2022-08-30T15:52:33.141Z,7.00
2022-08-30T15:55:00.857Z,3.42
2022-08-30T15:57:29.825Z,3.47
2022-08-30T15:59:57.484Z,3.38
2022-08-30T16:02:27.514Z,3.80
2022-08-30T16:04:55.599Z,4.38
2022-08-30T16:07:23.219Z,5.78
2022-08-30T16:09:51.302Z,2.83
2022-08-30T16:12:23.748Z,4.85
2022-08-30T16:14:52.917Z,3.90
2022-08-30T16:17:20.474Z,3.90
2022-08-30T16:19:48.026Z,3.65
2022-08-30T16:22:22.013Z,3.33
2022-08-30T16:24:50.149Z,4.60
2022-08-30T16:27:17.734Z,4.30
2022-08-30T16:29:45.302Z,2.92
2022-08-30T16:32:14.341Z,6.97
2022-08-30T16:34:41.944Z,4.90
2022-08-30T16:37:09.574Z,9.63
2022-08-30T16:39:37.224Z,8.35
2022-08-30T16:42:06.583Z,3.75
2022-08-30T16:44:34.771Z,5.28
2022-08-30T16:47:02.495Z,3.58
2022-08-30T16:49:31.738Z,6.45
2022-08-30T16:51:59.317Z,3.92
2022-08-30T16:54:27.002Z,4.90
2022-08-30T16:56:55.440Z,3.35
2022-08-30T16:59:23.642Z,4.38
2022-08-30T17:01:51.433Z,3.83
2022-08-30T17:04:20.244Z,3.20
2022-08-30T17:06:50.569Z,5.22
2022-08-30T17:09:19.588Z,4.25
2022-08-30T17:11:48.222Z,3.00
2022-08-30T17:14:21.512Z,4.47
2022-08-30T17:16:51.163Z,3.90
2022-08-30T17:19:18.733Z,3.63
2022-08-30T17:21:56.232Z,3.58
2022-08-30T17:24:24.617Z,5.95
2022-08-30T17:26:52.302Z,3.45
2022-08-30T17:29:20.643Z,4.30
2022-08-30T17:31:51.202Z,2.55
2022-08-30T17:34:21.005Z,3.63
2022-08-30T17:36:50.544Z,3.20
2022-08-30T17:39:19.728Z,5.32
2022-08-30T17:41:50.325Z,6.43
2022-08-30T17:44:19.459Z,4.80
2022-08-30T17:46:47.154Z,2.85
2022-08-30T17:49:15.231Z,4.90
2022-08-30T17:51:44.274Z,4.88
2022-08-30T17:54:13.022Z,3.10
2022-08-30T17:56:42.904Z,2.55
2022-08-30T17:59:11.669Z,6.30
2022-08-30T18:01:41.558Z,3.28
2022-08-30T18:04:10.743Z,4.85
2022-08-30T18:06:38.314Z,6.43
2022-08-30T18:09:09.211Z,3.30
2022-08-30T18:11:39.463Z,3.75
2022-08-30T18:14:10.831Z,3.40
2022-08-30T18:16:49.870Z,4.13
2022-08-30T18:19:22.439Z,4.38
2022-08-30T18:21:49.996Z,4.50
2022-08-30T18:24:17.908Z,5.43
2022-08-30T18:26:46.493Z,6.93
2022-08-30T18:29:26.168Z,5.85
2022-08-30T18:31:57.676Z,6.30
2022-08-30T18:34:25.216Z,6.72
2022-08-30T18:36:52.772Z,6.07
2022-08-30T18:39:21.809Z,4.88
2022-08-30T18:41:50.652Z,6.05
2022-08-30T18:44:29.577Z,5.55
2022-08-30T18:47:03.764Z,5.47
2022-08-30T18:49:34.680Z,5.43
2022-08-30T18:52:03.785Z,8.45
2022-08-30T18:54:31.671Z,3.83
2022-08-30T18:57:01.564Z,7.13
2022-08-30T18:59:35.687Z,6.43
2022-08-30T19:02:20.344Z,8.82
2022-08-30T19:04:56.702Z,6.10
2022-08-30T19:07:29.950Z,8.63
2022-08-30T19:10:06.007Z,4.82
2022-08-30T19:12:34.201Z,3.28
2022-08-30T19:15:11.017Z,6.40
2022-08-30T19:17:41.253Z,3.65
2022-08-30T19:20:10.109Z,5.32
2022-08-30T19:23:08.853Z,4.15
2022-08-30T19:25:35.547Z,5.00
2022-08-30T19:28:11.045Z,11.50
2022-08-30T19:30:40.475Z,6.70
2022-08-30T19:33:08.075Z,4.65
2022-08-30T19:35:50.847Z,4.97
2022-08-30T19:38:19.016Z,4.90
2022-08-30T19:40:52.371Z,5.22
2022-08-30T19:43:27.332Z,4.57
2022-08-30T19:46:00.896Z,3.40
2022-08-30T19:48:33.256Z,3.08
2022-08-30T19:51:07.890Z,4.88
2022-08-30T19:53:35.885Z,5.38
2022-08-30T19:56:03.944Z,6.40
2022-08-30T19:58:31.681Z,3.38
2022-08-30T20:01:10.935Z,4.82
2022-08-30T20:03:40.112Z,4.45
2022-08-30T20:06:09.023Z,5.55
2022-08-30T20:08:36.671Z,4.35
2022-08-30T20:11:04.811Z,4.53
2022-08-30T20:13:33.929Z,5.07
2022-08-30T20:16:03.731Z,4.45
2022-08-30T20:18:31.580Z,5.35
2022-08-30T20:20:59.138Z,6.65
2022-08-30T20:23:26.836Z,4.43
2022-08-30T20:25:55.582Z,7.28
2022-08-30T20:28:24.532Z,5.85
2022-08-30T20:30:52.707Z,3.10
2022-08-30T20:33:22.360Z,3.72
2022-08-30T20:35:51.421Z,6.78
2022-08-30T20:38:22.012Z,8.68
2022-08-30T20:40:54.879Z,9.20
2022-08-30T20:43:30.173Z,6.13
2022-08-30T20:46:18.696Z,6.18
2022-08-30T20:48:53.983Z,7.95
2022-08-30T20:51:27.588Z,6.90
2022-08-30T20:53:58.583Z,4.35
2022-08-30T20:56:27.626Z,5.45
2022-08-30T20:58:55.251Z,6.05
2022-08-30T21:01:23.425Z,5.30
2022-08-30T21:03:52.488Z,7.47
2022-08-30T21:06:21.675Z,8.48
2022-08-30T21:08:49.505Z,7.30
2022-08-30T21:11:17.073Z,7.82
2022-08-30T21:13:44.658Z,8.63
2022-08-30T21:16:12.723Z,6.68
2022-08-30T21:18:40.317Z,10.20
2022-08-30T21:21:13.764Z,9.18
2022-08-30T21:23:42.687Z,6.22
2022-08-30T21:26:11.852Z,7.93
2022-08-30T21:28:39.992Z,7.68
2022-08-30T21:31:09.327Z,12.65
2022-08-30T21:33:37.015Z,10.90
2022-08-30T21:36:23.006Z,10.75
2022-08-30T21:38:53.508Z,6.32
2022-08-30T21:41:22.088Z,6.93
2022-08-30T21:43:49.877Z,7.28
2022-08-30T21:46:17.831Z,7.28
2022-08-30T21:48:46.467Z,6.75
2022-08-30T21:51:14.047Z,7.22
2022-08-30T21:53:41.617Z,6.85
2022-08-30T21:56:15.476Z,7.72
2022-08-30T21:58:46.348Z,6.05
2022-08-30T22:01:17.397Z,8.15
2022-08-30T22:03:45.649Z,8.27
2022-08-30T22:06:14.969Z,8.32
2022-08-30T22:08:44.848Z,8.13
2022-08-30T22:11:19.000Z,8.38
2022-08-30T22:13:48.666Z,6.28
2022-08-30T22:16:17.253Z,6.93
2022-08-30T22:18:45.109Z,8.45
2022-08-30T22:21:15.177Z,8.68
2022-08-30T22:23:43.585Z,9.10
2022-08-30T22:26:12.014Z,5.78
2022-08-30T22:28:41.222Z,6.35
2022-08-30T22:31:11.958Z,6.13
2022-08-30T22:33:40.031Z,6.88
2022-08-30T22:36:08.434Z,5.53
2022-08-30T22:38:36.378Z,6.05
2022-08-30T22:41:04.128Z,6.72
2022-08-30T22:43:31.646Z,6.63
2022-08-30T22:46:00.923Z,5.32
2022-08-30T22:48:28.484Z,7.03
2022-08-30T22:50:56.047Z,5.47
2022-08-30T22:53:23.587Z,9.98
2022-08-30T22:55:51.168Z,9.57
2022-08-30T22:58:19.287Z,10.93
2022-08-30T23:00:49.725Z,8.35
2022-08-30T23:03:24.474Z,5.88
2022-08-30T23:05:52.001Z,12.80
2022-08-30T23:08:19.591Z,10.77
2022-08-30T23:10:47.138Z,7.88
2022-08-30T23:13:14.682Z,6.53
2022-08-30T23:15:42.455Z,7.97
2022-08-30T23:18:10.040Z,5.63
2022-08-30T23:20:38.920Z,5.80
2022-08-30T23:23:05.385Z,7.22
2022-08-30T23:25:52.281Z,7.95
2022-08-30T23:28:39.521Z,8.55
2022-08-30T23:31:29.997Z,9.13
2022-08-30T23:34:15.566Z,6.05
2022-08-30T23:37:02.806Z,7.75
2022-08-30T23:39:48.047Z,5.65
2022-08-30T23:45:18.763Z,12.73
2022-08-30T23:48:04.070Z,6.32
2022-08-30T23:50:49.420Z,8.82
2022-08-30T23:53:35.981Z,8.30
2022-08-30T23:56:21.251Z,5.70
